createdAt,value
2017-07-29T00:00:40.225Z,18.11
2017-07-29T00:01:21.125Z,18.1
2017-07-29T00:02:02.011Z,18.19
2017-07-29T00:02:42.893Z,18.22
2017-07-29T00:03:23.786Z,18.26
2017-07-29T00:04:04.675Z,18.22
2017-07-29T00:04:45.558Z,18.22
2017-07-29T00:05:26.440Z,18.19
2017-07-29T00:06:07.341Z,18.23
2017-07-29T00:06:48.216Z,18.2
2017-07-29T00:07:29.106Z,18.23
2017-07-29T00:08:09.991Z,18.18
2017-07-29T00:08:50.886Z,18.19
2017-07-29T00:09:31.772Z,18.23
2017-07-29T00:10:12.662Z,18.29
2017-07-29T00:10:53.557Z,18.18
2017-07-29T00:11:34.446Z,18.26
2017-07-29T00:12:15.353Z,18.18
2017-07-29T00:12:56.247Z,18.13
2017-07-29T00:13:37.137Z,18.1
2017-07-29T00:14:18.030Z,18.22
2017-07-29T00:14:58.910Z,18.07
2017-07-29T00:15:39.799Z,18.13
2017-07-29T00:16:20.683Z,18.08
2017-07-29T00:17:01.566Z,18.11
2017-07-29T00:17:42.462Z,18.18
2017-07-29T00:18:23.357Z,18.08
2017-07-29T00:19:04.244Z,18.13
2017-07-29T00:19:45.123Z,18
2017-07-29T00:20:26.010Z,18.01
2017-07-29T00:21:06.893Z,18.01
2017-07-29T00:21:47.790Z,18.03
2017-07-29T00:22:28.659Z,17.98
2017-07-29T00:23:09.572Z,18.01
2017-07-29T00:23:50.462Z,18.08
2017-07-29T00:24:31.359Z,18.04
2017-07-29T00:25:12.242Z,18.03
2017-07-29T00:25:53.135Z,17.97
2017-07-29T00:26:34.014Z,18.01
2017-07-29T00:27:14.902Z,18.03
2017-07-29T00:27:55.778Z,17.98
2017-07-29T00:28:36.683Z,17.98
2017-07-29T00:29:17.540Z,18
2017-07-29T00:29:58.428Z,18.01
2017-07-29T00:30:39.317Z,18.1
2017-07-29T00:31:20.206Z,18.03
2017-07-29T00:32:01.079Z,18
2017-07-29T00:32:41.973Z,18.01
2017-07-29T00:33:22.870Z,18.03
2017-07-29T00:34:03.752Z,18.01
2017-07-29T00:34:44.650Z,18.04
2017-07-29T00:35:25.544Z,18.07
2017-07-29T00:36:06.423Z,18.05
2017-07-29T00:36:47.314Z,18.03
2017-07-29T00:37:28.210Z,18.07
2017-07-29T00:38:09.095Z,18.08
2017-07-29T00:38:49.984Z,18.1
2017-07-29T00:39:30.881Z,18.1
2017-07-29T00:40:11.769Z,18.08
2017-07-29T00:40:52.667Z,18.01
2017-07-29T00:41:33.552Z,18.03
2017-07-29T00:42:14.433Z,18.03
2017-07-29T00:42:55.339Z,17.95
2017-07-29T00:43:36.229Z,17.92
2017-07-29T00:44:17.109Z,17.89
2017-07-29T00:44:57.993Z,17.98
2017-07-29T00:45:38.892Z,18
2017-07-29T00:46:19.775Z,17.97
2017-07-29T00:47:00.643Z,18.01
2017-07-29T00:47:41.551Z,18
2017-07-29T00:48:22.457Z,18.03
2017-07-29T00:49:03.326Z,18.04
2017-07-29T00:49:44.205Z,18.03
2017-07-29T00:50:25.095Z,18.05
2017-07-29T00:51:05.993Z,18
2017-07-29T00:51:46.874Z,17.97
2017-07-29T00:52:27.764Z,17.94
2017-07-29T00:53:08.651Z,17.95
2017-07-29T00:53:49.531Z,17.98
2017-07-29T00:54:30.416Z,17.95
2017-07-29T00:55:11.314Z,17.94
2017-07-29T00:55:52.205Z,18.01
2017-07-29T00:56:33.111Z,17.87
2017-07-29T00:57:13.999Z,17.87
2017-07-29T00:57:54.902Z,17.89
2017-07-29T00:58:35.762Z,17.83
2017-07-29T00:59:17.539Z,17.87
2017-07-29T00:59:58.430Z,17.92
2017-07-29T01:00:39.313Z,17.92
2017-07-29T01:01:20.210Z,17.97
2017-07-29T01:02:01.100Z,17.92
2017-07-29T01:02:41.994Z,17.94
2017-07-29T01:03:22.874Z,17.95
2017-07-29T01:04:03.749Z,17.94
2017-07-29T01:04:44.636Z,17.94
2017-07-29T01:05:25.525Z,17.9
2017-07-29T01:06:06.422Z,17.95
2017-07-29T01:06:47.309Z,17.89
2017-07-29T01:07:28.202Z,17.86
2017-07-29T01:08:09.077Z,17.85
2017-07-29T01:08:49.963Z,17.8
2017-07-29T01:09:30.849Z,17.86
2017-07-29T01:10:11.746Z,17.87
2017-07-29T01:10:52.628Z,17.85
2017-07-29T01:11:33.531Z,17.83
2017-07-29T01:12:14.413Z,17.83
2017-07-29T01:12:55.306Z,17.85
2017-07-29T01:13:36.211Z,17.86
2017-07-29T01:14:17.100Z,17.83
2017-07-29T01:14:57.987Z,17.85
2017-07-29T01:15:38.868Z,17.79
2017-07-29T01:16:19.753Z,17.79
2017-07-29T01:17:00.644Z,17.74
2017-07-29T01:17:41.516Z,17.82
2017-07-29T01:18:22.445Z,17.8
2017-07-29T01:19:03.324Z,17.76
2017-07-29T01:19:44.199Z,17.72
2017-07-29T01:20:25.104Z,17.67
2017-07-29T01:21:05.995Z,17.71
2017-07-29T01:21:46.914Z,17.79
2017-07-29T01:22:27.804Z,17.79
2017-07-29T01:23:08.683Z,17.72
2017-07-29T01:23:49.588Z,17.71
2017-07-29T01:24:30.468Z,17.82
2017-07-29T01:25:11.368Z,17.82
2017-07-29T01:25:52.254Z,17.8
2017-07-29T01:26:33.148Z,17.82
2017-07-29T01:27:14.042Z,17.83
2017-07-29T01:27:54.930Z,17.83
2017-07-29T01:28:35.822Z,17.72
2017-07-29T01:29:16.711Z,17.8
2017-07-29T01:29:57.598Z,17.78
2017-07-29T01:30:38.490Z,17.7
2017-07-29T01:31:19.382Z,17.76
2017-07-29T01:32:00.282Z,17.78
2017-07-29T01:32:41.175Z,17.8
2017-07-29T01:33:22.090Z,17.76
2017-07-29T01:34:02.956Z,17.72
2017-07-29T01:34:43.889Z,17.79
2017-07-29T01:35:24.768Z,17.79
2017-07-29T01:36:05.661Z,17.82
2017-07-29T01:36:46.537Z,17.72
2017-07-29T01:37:27.426Z,17.82
2017-07-29T01:38:08.327Z,17.82
2017-07-29T01:38:49.221Z,17.79
2017-07-29T01:39:30.115Z,17.79
2017-07-29T01:40:11.009Z,17.82
2017-07-29T01:40:51.891Z,17.8
2017-07-29T01:41:32.768Z,17.83
2017-07-29T01:42:13.664Z,17.8
2017-07-29T01:42:54.555Z,17.87
2017-07-29T01:43:35.443Z,17.9
2017-07-29T01:44:16.330Z,17.82
2017-07-29T01:44:57.230Z,17.8
2017-07-29T01:45:38.122Z,17.82
2017-07-29T01:46:18.999Z,17.85
2017-07-29T01:46:59.888Z,17.79
2017-07-29T01:47:40.799Z,17.9
2017-07-29T01:48:21.687Z,17.92
2017-07-29T01:49:02.595Z,17.9
2017-07-29T01:49:43.492Z,17.92
2017-07-29T01:50:24.379Z,17.87
2017-07-29T01:51:05.272Z,17.95
2017-07-29T01:51:46.151Z,17.95
2017-07-29T01:52:27.047Z,17.95
2017-07-29T01:53:07.936Z,18.01
2017-07-29T01:53:48.832Z,17.92
2017-07-29T01:54:29.716Z,18.03
2017-07-29T01:55:10.626Z,18.04
2017-07-29T01:55:51.510Z,18
2017-07-29T01:56:32.393Z,17.95
2017-07-29T01:57:13.283Z,17.95
2017-07-29T01:57:54.180Z,17.92
2017-07-29T01:58:35.051Z,17.98
2017-07-29T01:59:15.952Z,17.95
2017-07-29T01:59:56.825Z,17.95
2017-07-29T02:00:37.719Z,17.95
2017-07-29T02:01:18.607Z,17.97
2017-07-29T02:01:59.524Z,17.95
2017-07-29T02:02:40.388Z,17.94
2017-07-29T02:03:21.286Z,17.9
2017-07-29T02:04:02.193Z,17.85
2017-07-29T02:04:43.079Z,17.87
2017-07-29T02:05:23.963Z,17.92
2017-07-29T02:06:04.850Z,17.86
2017-07-29T02:06:45.737Z,17.85
2017-07-29T02:07:26.614Z,17.89
2017-07-29T02:08:07.504Z,17.87
2017-07-29T02:08:48.407Z,17.86
2017-07-29T02:09:29.286Z,17.82
2017-07-29T02:10:10.178Z,17.83
2017-07-29T02:10:51.068Z,17.82
2017-07-29T02:11:31.957Z,17.8
2017-07-29T02:12:12.850Z,17.8
2017-07-29T02:12:53.737Z,17.86
2017-07-29T02:13:34.619Z,17.82
2017-07-29T02:14:15.504Z,17.87
2017-07-29T02:14:56.394Z,17.8
2017-07-29T02:15:37.294Z,17.82
2017-07-29T02:16:18.172Z,17.85
2017-07-29T02:16:59.061Z,17.87
2017-07-29T02:17:39.948Z,17.8
2017-07-29T02:18:20.835Z,17.79
2017-07-29T02:19:01.736Z,17.83
2017-07-29T02:19:42.627Z,17.85
2017-07-29T02:20:23.524Z,17.83
2017-07-29T02:21:04.414Z,17.8
2017-07-29T02:21:45.299Z,17.8
2017-07-29T02:22:26.188Z,17.82
2017-07-29T02:23:07.117Z,17.82
2017-07-29T02:23:48.001Z,17.85
2017-07-29T02:24:28.886Z,17.82
2017-07-29T02:25:09.792Z,17.86
2017-07-29T02:25:50.672Z,17.92
2017-07-29T02:26:31.571Z,17.9
2017-07-29T02:27:12.497Z,18
2017-07-29T02:27:53.369Z,17.85
2017-07-29T02:28:34.260Z,17.86
2017-07-29T02:29:15.160Z,17.9
2017-07-29T02:29:56.047Z,17.85
2017-07-29T02:30:36.935Z,17.92
2017-07-29T02:31:17.833Z,17.83
2017-07-29T02:31:58.724Z,17.89
2017-07-29T02:32:39.617Z,17.86
2017-07-29T02:33:20.506Z,17.92
2017-07-29T02:34:01.391Z,17.94
2017-07-29T02:34:42.262Z,17.98
2017-07-29T02:35:23.174Z,17.97
2017-07-29T02:36:04.062Z,17.9
2017-07-29T02:36:44.942Z,18
2017-07-29T02:37:25.835Z,17.9
2017-07-29T02:38:06.729Z,17.9
2017-07-29T02:38:47.615Z,17.82
2017-07-29T02:39:28.507Z,17.8
2017-07-29T02:40:09.413Z,17.95
2017-07-29T02:40:50.289Z,17.95
2017-07-29T02:41:31.183Z,17.95
2017-07-29T02:42:12.077Z,17.87
2017-07-29T02:42:52.959Z,17.86
2017-07-29T02:43:33.841Z,17.87
2017-07-29T02:44:14.734Z,17.86
2017-07-29T02:44:55.602Z,17.86
2017-07-29T02:45:36.473Z,17.92
2017-07-29T02:46:17.353Z,17.86
2017-07-29T02:46:58.255Z,17.92
2017-07-29T02:47:39.146Z,18
2017-07-29T02:48:20.024Z,17.98
2017-07-29T02:49:00.913Z,17.98
2017-07-29T02:49:41.802Z,17.97
2017-07-29T02:50:22.699Z,17.98
2017-07-29T02:51:03.594Z,17.97
2017-07-29T02:51:44.493Z,17.97
2017-07-29T02:52:25.390Z,17.94
2017-07-29T02:53:06.289Z,17.94
2017-07-29T02:53:47.172Z,17.92
2017-07-29T02:54:28.058Z,17.9
2017-07-29T02:55:08.946Z,17.94
2017-07-29T02:55:49.855Z,18.01
2017-07-29T02:56:30.733Z,18.01
2017-07-29T02:57:11.617Z,17.95
2017-07-29T02:57:52.512Z,17.95
2017-07-29T02:58:33.401Z,17.97
2017-07-29T02:59:14.291Z,17.97
2017-07-29T02:59:55.192Z,18
2017-07-29T03:00:36.067Z,18.01
2017-07-29T03:01:16.968Z,18.04
2017-07-29T03:01:57.865Z,18.03
2017-07-29T03:02:38.760Z,17.98
2017-07-29T03:03:19.649Z,18.04
2017-07-29T03:04:00.542Z,18.01
2017-07-29T03:04:41.431Z,17.97
2017-07-29T03:05:22.322Z,18.04
2017-07-29T03:06:03.216Z,18.03
2017-07-29T03:06:44.097Z,18.07
2017-07-29T03:07:24.983Z,18.04
2017-07-29T03:08:05.879Z,18.03
2017-07-29T03:08:46.768Z,18.01
2017-07-29T03:09:27.663Z,17.97
2017-07-29T03:10:08.564Z,17.97
2017-07-29T03:10:49.460Z,18.04
2017-07-29T03:11:30.357Z,17.98
2017-07-29T03:12:11.241Z,18
2017-07-29T03:12:52.124Z,17.98
2017-07-29T03:13:33.008Z,18
2017-07-29T03:14:13.906Z,17.97
2017-07-29T03:14:54.786Z,17.94
2017-07-29T03:15:35.699Z,17.92
2017-07-29T03:16:16.587Z,17.86
2017-07-29T03:16:57.482Z,18
2017-07-29T03:17:38.374Z,17.94
2017-07-29T03:18:19.288Z,17.97
2017-07-29T03:19:00.169Z,17.86
2017-07-29T03:19:41.057Z,17.92
2017-07-29T03:20:21.952Z,17.82
2017-07-29T03:21:02.837Z,17.86
2017-07-29T03:21:43.738Z,17.87
2017-07-29T03:22:24.622Z,17.85
2017-07-29T03:23:05.502Z,17.82
2017-07-29T03:23:46.399Z,17.82
2017-07-29T03:24:27.287Z,17.83
2017-07-29T03:25:08.185Z,17.85
2017-07-29T03:25:49.059Z,17.79
2017-07-29T03:26:29.972Z,17.85
2017-07-29T03:27:10.865Z,17.72
2017-07-29T03:27:51.725Z,17.79
2017-07-29T03:28:32.646Z,17.76
2017-07-29T03:29:13.523Z,17.8
2017-07-29T03:29:54.405Z,17.74
2017-07-29T03:30:35.287Z,17.79
2017-07-29T03:31:16.181Z,17.8
2017-07-29T03:31:57.078Z,17.76
2017-07-29T03:32:37.965Z,17.76
2017-07-29T03:33:18.888Z,17.79
2017-07-29T03:33:59.750Z,17.74
2017-07-29T03:34:40.653Z,17.74
2017-07-29T03:35:21.581Z,17.74
2017-07-29T03:36:02.505Z,17.72
2017-07-29T03:36:43.387Z,17.8
2017-07-29T03:37:24.256Z,17.78
2017-07-29T03:38:05.152Z,17.78
2017-07-29T03:38:46.040Z,17.82
2017-07-29T03:39:26.918Z,17.63
2017-07-29T03:41:05.326Z,17.71
2017-07-29T03:41:46.202Z,17.67
2017-07-29T03:42:27.090Z,17.65
2017-07-29T03:43:07.986Z,17.71
2017-07-29T03:43:48.858Z,17.7
2017-07-29T03:44:29.720Z,17.71
2017-07-29T03:45:10.599Z,17.7
2017-07-29T03:45:51.485Z,17.74
2017-07-29T03:46:32.419Z,17.64
2017-07-29T03:47:13.327Z,17.76
2017-07-29T03:47:54.212Z,17.83
2017-07-29T03:48:35.077Z,17.72
2017-07-29T03:50:04.202Z,17.72
2017-07-29T03:50:45.099Z,17.78
2017-07-29T03:51:25.982Z,17.82
2017-07-29T03:52:06.844Z,17.79
2017-07-29T03:52:47.718Z,17.89
2017-07-29T03:53:28.634Z,17.83
2017-07-29T03:54:09.516Z,17.86
2017-07-29T03:54:50.397Z,17.89
2017-07-29T03:55:31.335Z,17.98
2017-07-29T03:56:12.193Z,17.98
2017-07-29T03:56:53.065Z,17.94
2017-07-29T03:57:33.949Z,17.9
2017-07-29T03:58:14.841Z,17.94
2017-07-29T03:58:55.725Z,17.97
2017-07-29T03:59:36.603Z,17.94
2017-07-29T04:00:17.491Z,17.86
2017-07-29T04:00:58.375Z,17.86
2017-07-29T04:01:39.250Z,17.9
2017-07-29T04:02:20.114Z,17.92
2017-07-29T04:03:00.992Z,17.94
2017-07-29T04:03:41.883Z,17.92
2017-07-29T04:04:22.774Z,18.01
2017-07-29T04:05:03.648Z,18.04
2017-07-29T04:05:44.519Z,18.01
2017-07-29T04:06:25.416Z,18.11
2017-07-29T04:07:06.331Z,18.07
2017-07-29T04:07:47.193Z,18.08
2017-07-29T04:08:28.095Z,18.1
2017-07-29T04:09:08.979Z,18.03
2017-07-29T04:09:49.857Z,18
2017-07-29T04:10:30.736Z,18.04
2017-07-29T04:11:11.627Z,18.1
2017-07-29T04:11:52.544Z,18.1
2017-07-29T04:12:33.444Z,18.08
2017-07-29T04:13:14.335Z,18.03
2017-07-29T04:13:55.209Z,18.07
2017-07-29T04:14:36.113Z,18.03
2017-07-29T04:15:17.009Z,18.07
2017-07-29T04:15:57.880Z,18.01
2017-07-29T04:16:38.752Z,18
2017-07-29T04:17:19.613Z,17.95
2017-07-29T04:18:00.534Z,17.92
2017-07-29T04:18:41.420Z,18
2017-07-29T04:19:22.294Z,17.98
2017-07-29T04:20:03.184Z,17.95
2017-07-29T04:20:44.071Z,17.92
2017-07-29T04:21:24.958Z,17.94
2017-07-29T04:22:05.862Z,17.9
2017-07-29T04:22:46.755Z,17.94
2017-07-29T04:23:27.736Z,17.98
2017-07-29T04:24:08.601Z,17.92
2017-07-29T04:24:49.500Z,17.89
2017-07-29T04:25:30.381Z,17.92
2017-07-29T04:26:11.270Z,17.85
2017-07-29T04:26:52.148Z,17.83
2017-07-29T04:27:33.058Z,17.83
2017-07-29T04:28:13.951Z,17.78
2017-07-29T04:28:54.802Z,17.82
2017-07-29T04:29:35.672Z,17.8
2017-07-29T04:30:16.561Z,17.8
2017-07-29T04:30:57.461Z,17.79
2017-07-29T04:31:38.332Z,17.78
2017-07-29T04:32:19.199Z,17.82
2017-07-29T04:33:00.090Z,17.87
2017-07-29T04:33:40.986Z,17.76
2017-07-29T04:34:21.876Z,17.86
2017-07-29T04:35:02.726Z,17.86
2017-07-29T04:35:43.589Z,17.85
2017-07-29T04:36:24.479Z,17.89
2017-07-29T04:37:05.384Z,17.87
2017-07-29T04:37:46.268Z,17.83
2017-07-29T04:38:27.158Z,17.89
2017-07-29T04:39:08.047Z,17.95
2017-07-29T04:39:48.939Z,18
2017-07-29T04:40:29.848Z,17.94
2017-07-29T04:41:10.728Z,18
2017-07-29T04:41:51.606Z,18.03
2017-07-29T04:42:32.482Z,18.03
2017-07-29T04:43:13.378Z,18
2017-07-29T04:43:54.295Z,18.01
2017-07-29T04:44:35.169Z,17.95
2017-07-29T04:45:16.062Z,18.15
2017-07-29T04:45:56.951Z,18.18
2017-07-29T04:46:37.814Z,18.1
2017-07-29T04:47:18.692Z,18.13
2017-07-29T04:47:59.578Z,18.08
2017-07-29T04:48:40.472Z,18.13
2017-07-29T04:49:21.361Z,18.31
2017-07-29T04:50:02.262Z,18.28
2017-07-29T04:50:43.156Z,18.23
2017-07-29T04:51:24.038Z,18.23
2017-07-29T04:52:04.935Z,18.18
2017-07-29T04:52:45.833Z,18.23
2017-07-29T04:53:26.711Z,18.34
2017-07-29T04:54:07.607Z,18.29
2017-07-29T04:54:48.521Z,18.33
2017-07-29T04:55:29.404Z,18.34
2017-07-29T04:56:10.324Z,18.33
2017-07-29T04:56:51.202Z,18.28
2017-07-29T04:57:32.094Z,18.23
2017-07-29T04:58:12.999Z,18.25
2017-07-29T04:58:53.868Z,18.31
2017-07-29T04:59:34.748Z,18.23
2017-07-29T05:00:15.654Z,18.13
2017-07-29T05:00:56.549Z,18.4
2017-07-29T05:01:37.429Z,18.33
2017-07-29T05:02:18.339Z,18.47
2017-07-29T05:02:59.224Z,18.4
2017-07-29T05:03:40.127Z,18.5
2017-07-29T05:04:21.024Z,18.55
2017-07-29T05:05:01.907Z,18.59
2017-07-29T05:05:42.800Z,18.68
2017-07-29T05:06:23.699Z,18.59
2017-07-29T05:07:04.581Z,18.56
2017-07-29T05:07:45.461Z,18.62
2017-07-29T05:08:26.365Z,18.73
2017-07-29T05:09:07.251Z,18.68
2017-07-29T05:09:48.153Z,18.63
2017-07-29T05:10:29.060Z,18.6
2017-07-29T05:11:09.928Z,18.62
2017-07-29T05:11:50.808Z,18.68
2017-07-29T05:12:31.692Z,18.62
2017-07-29T05:13:12.579Z,18.6
2017-07-29T05:13:53.460Z,18.62
2017-07-29T05:14:34.344Z,18.65
2017-07-29T05:15:15.231Z,18.55
2017-07-29T05:15:56.125Z,18.62
2017-07-29T05:16:37.003Z,18.6
2017-07-29T05:17:17.893Z,18.62
2017-07-29T05:17:58.796Z,18.56
2017-07-29T05:18:39.682Z,18.56
2017-07-29T05:19:20.575Z,18.53
2017-07-29T05:20:01.462Z,18.58
2017-07-29T05:20:42.348Z,18.56
2017-07-29T05:21:23.229Z,18.65
2017-07-29T05:22:04.140Z,18.58
2017-07-29T05:22:45.024Z,18.6
2017-07-29T05:23:25.923Z,18.63
2017-07-29T05:24:06.815Z,18.66
2017-07-29T05:24:48.590Z,18.66
2017-07-29T05:25:29.474Z,18.63
2017-07-29T05:26:10.351Z,18.63
2017-07-29T05:26:51.220Z,18.6
2017-07-29T05:27:32.123Z,18.68
2017-07-29T05:28:13.006Z,18.65
2017-07-29T05:28:53.925Z,18.63
2017-07-29T05:29:34.812Z,18.55
2017-07-29T05:30:15.718Z,18.7
2017-07-29T05:30:56.593Z,18.74
2017-07-29T05:31:37.478Z,18.77
2017-07-29T05:32:18.368Z,18.7
2017-07-29T05:32:59.259Z,18.71
2017-07-29T05:33:40.162Z,18.75
2017-07-29T05:34:21.042Z,18.75
2017-07-29T05:35:01.960Z,18.77
2017-07-29T05:35:42.823Z,18.75
2017-07-29T05:36:23.709Z,18.78
2017-07-29T05:37:04.602Z,18.86
2017-07-29T05:37:45.484Z,18.83
2017-07-29T05:38:26.377Z,18.73
2017-07-29T05:39:07.261Z,18.83
2017-07-29T05:39:48.165Z,18.73
2017-07-29T05:40:29.051Z,18.73
2017-07-29T05:41:09.936Z,18.73
2017-07-29T05:41:50.821Z,18.77
2017-07-29T05:42:31.726Z,18.73
2017-07-29T05:43:12.623Z,18.78
2017-07-29T05:43:53.513Z,18.74
2017-07-29T05:44:34.405Z,18.75
2017-07-29T05:45:15.293Z,18.77
2017-07-29T05:45:56.184Z,18.89
2017-07-29T05:46:37.083Z,18.89
2017-07-29T05:47:17.973Z,18.88
2017-07-29T05:47:58.862Z,18.9
2017-07-29T05:48:39.755Z,18.95
2017-07-29T05:49:20.647Z,19.09
2017-07-29T05:50:01.529Z,19.04
2017-07-29T05:50:42.430Z,19.22
2017-07-29T05:52:36.240Z,19.29
2017-07-29T05:53:17.133Z,19.31
2017-07-29T05:53:58.031Z,19.27
2017-07-29T05:54:38.909Z,19.37
2017-07-29T05:55:19.807Z,19.29
2017-07-29T05:56:00.701Z,19.33
2017-07-29T05:56:41.598Z,19.24
2017-07-29T05:57:22.488Z,19.24
2017-07-29T05:58:03.379Z,19.31
2017-07-29T05:58:44.269Z,19.16
2017-07-29T05:59:25.177Z,19.18
2017-07-29T06:00:06.064Z,19.18
2017-07-29T06:00:46.958Z,19.18
2017-07-29T06:01:27.858Z,19.22
2017-07-29T06:02:08.742Z,19.18
2017-07-29T06:02:49.611Z,19.26
2017-07-29T06:03:30.516Z,19.22
2017-07-29T06:04:11.402Z,19.24
2017-07-29T06:04:52.301Z,19.21
2017-07-29T06:05:33.192Z,19.22
2017-07-29T06:06:14.073Z,19.27
2017-07-29T06:06:54.957Z,19.22
2017-07-29T06:07:35.869Z,19.29
2017-07-29T06:08:16.755Z,19.24
2017-07-29T06:08:57.652Z,19.19
2017-07-29T06:09:38.541Z,19.15
2017-07-29T06:10:19.433Z,19.12
2017-07-29T06:11:00.331Z,19.16
2017-07-29T06:11:41.221Z,19.21
2017-07-29T06:12:22.108Z,19.16
2017-07-29T06:13:02.992Z,19.09
2017-07-29T06:13:43.894Z,19.18
2017-07-29T06:14:24.780Z,19.09
2017-07-29T06:15:05.678Z,19.15
2017-07-29T06:15:46.566Z,19.15
2017-07-29T06:16:27.456Z,19.11
2017-07-29T06:17:08.361Z,19.07
2017-07-29T06:17:49.232Z,19.04
2017-07-29T06:18:30.121Z,19.07
2017-07-29T06:19:11.043Z,19.22
2017-07-29T06:19:51.936Z,19.16
2017-07-29T06:20:32.830Z,19.16
2017-07-29T06:21:13.729Z,19.19
2017-07-29T06:21:54.631Z,19.3
2017-07-29T06:22:35.538Z,19.21
2017-07-29T06:23:16.420Z,19.31
2017-07-29T06:23:57.305Z,19.22
2017-07-29T06:24:38.202Z,19.27
2017-07-29T06:25:19.082Z,19.26
2017-07-29T06:25:59.979Z,19.22
2017-07-29T06:26:40.878Z,19.26
2017-07-29T06:27:21.765Z,19.22
2017-07-29T06:28:02.662Z,19.3
2017-07-29T06:28:43.548Z,19.27
2017-07-29T06:29:24.524Z,19.27
2017-07-29T06:30:05.407Z,19.34
2017-07-29T06:30:46.346Z,19.24
2017-07-29T06:31:27.187Z,19.3
2017-07-29T06:32:08.062Z,19.26
2017-07-29T06:32:48.950Z,19.3
2017-07-29T06:33:29.843Z,19.33
2017-07-29T06:34:10.724Z,19.22
2017-07-29T06:34:51.609Z,19.26
2017-07-29T06:35:32.543Z,19.27
2017-07-29T06:36:13.375Z,19.22
2017-07-29T06:36:54.268Z,19.24
2017-07-29T06:37:35.157Z,19.26
2017-07-29T06:38:16.053Z,19.36
2017-07-29T06:38:56.938Z,19.48
2017-07-29T06:39:37.896Z,19.44
2017-07-29T06:40:18.783Z,19.55
2017-07-29T06:40:59.678Z,19.74
2017-07-29T06:41:40.570Z,19.82
2017-07-29T06:42:21.460Z,19.88
2017-07-29T06:43:02.337Z,19.91
2017-07-29T06:43:43.223Z,19.95
2017-07-29T06:44:24.112Z,20.13
2017-07-29T06:45:05.007Z,20.11
2017-07-29T06:45:45.967Z,20.1
2017-07-29T06:47:24.664Z,20.21
2017-07-29T06:48:05.563Z,20.19
2017-07-29T06:48:46.460Z,20.22
2017-07-29T06:49:27.391Z,20.22
2017-07-29T06:50:08.284Z,20.37
2017-07-29T06:50:49.178Z,20.26
2017-07-29T06:51:30.101Z,20.43
2017-07-29T06:52:10.989Z,20.39
2017-07-29T06:52:51.869Z,20.31
2017-07-29T06:53:32.770Z,20.22
2017-07-29T06:54:13.654Z,20.21
2017-07-29T06:54:54.542Z,20.16
2017-07-29T06:55:35.438Z,20.14
2017-07-29T06:56:16.331Z,20.21
2017-07-29T06:56:57.218Z,20.22
2017-07-29T06:57:38.117Z,20.18
2017-07-29T06:58:19.008Z,20.21
2017-07-29T06:58:59.899Z,20.21
2017-07-29T06:59:40.775Z,20.24
2017-07-29T07:00:21.665Z,20.28
2017-07-29T07:01:02.547Z,20.22
2017-07-29T07:01:43.429Z,20.26
2017-07-29T07:02:24.325Z,20.31
2017-07-29T07:03:05.227Z,20.29
2017-07-29T07:03:46.119Z,20.31
2017-07-29T07:04:27.016Z,20.21
2017-07-29T07:05:07.893Z,20.18
2017-07-29T07:05:48.843Z,20.24
2017-07-29T07:06:29.729Z,20.19
2017-07-29T07:07:10.627Z,20.21
2017-07-29T07:07:51.514Z,20.24
2017-07-29T07:08:32.405Z,20.18
2017-07-29T07:09:13.290Z,20.21
2017-07-29T07:09:54.207Z,20.19
2017-07-29T07:10:35.071Z,20.11
2017-07-29T07:11:15.978Z,20.24
2017-07-29T07:11:56.870Z,20.07
2017-07-29T07:12:37.751Z,20.07
2017-07-29T07:13:18.655Z,20.25
2017-07-29T07:13:59.546Z,20.09
2017-07-29T07:14:40.432Z,20.11
2017-07-29T07:15:21.335Z,20.11
2017-07-29T07:16:02.222Z,20.13
2017-07-29T07:16:43.110Z,19.85
2017-07-29T07:17:24.006Z,20.06
2017-07-29T07:18:04.891Z,19.91
2017-07-29T07:18:45.780Z,19.85
2017-07-29T07:19:26.672Z,19.92
2017-07-29T07:20:07.567Z,19.95
2017-07-29T07:20:48.456Z,20.16
2017-07-29T07:21:29.331Z,20.16
2017-07-29T07:22:10.210Z,20.16
2017-07-29T07:22:51.090Z,20.16
2017-07-29T07:23:31.980Z,20.21
2017-07-29T07:24:12.861Z,20.36
2017-07-29T07:24:53.761Z,20.39
2017-07-29T07:25:34.626Z,20.5
2017-07-29T07:26:15.511Z,20.48
2017-07-29T07:26:56.403Z,20.51
2017-07-29T07:27:37.300Z,20.58
2017-07-29T07:28:18.183Z,20.7
2017-07-29T07:28:59.084Z,20.6
2017-07-29T07:30:16.989Z,20.74
2017-07-29T07:30:57.910Z,20.75
2017-07-29T07:31:38.798Z,20.75
2017-07-29T07:32:19.680Z,20.84
2017-07-29T07:33:00.573Z,20.84
2017-07-29T07:33:41.454Z,20.81
2017-07-29T07:34:22.327Z,20.81
2017-07-29T07:35:03.214Z,20.81
2017-07-29T07:35:44.102Z,20.84
2017-07-29T07:36:24.987Z,20.8
2017-07-29T07:37:05.877Z,20.84
2017-07-29T07:37:46.771Z,20.78
2017-07-29T07:38:27.644Z,20.7
2017-07-29T07:39:08.517Z,20.77
2017-07-29T07:39:49.418Z,20.75
2017-07-29T07:40:30.320Z,20.77
2017-07-29T07:41:11.197Z,20.69
2017-07-29T07:41:52.089Z,20.69
2017-07-29T07:42:32.986Z,20.74
2017-07-29T07:43:13.862Z,20.63
2017-07-29T07:43:54.740Z,20.59
2017-07-29T07:44:35.613Z,20.67
2017-07-29T07:45:16.488Z,20.62
2017-07-29T07:45:57.364Z,20.7
2017-07-29T07:46:38.277Z,20.66
2017-07-29T07:47:19.153Z,20.59
2017-07-29T07:48:00.077Z,20.5
2017-07-29T07:48:40.926Z,20.5
2017-07-29T07:49:21.808Z,20.48
2017-07-29T07:50:02.677Z,20.39
2017-07-29T07:50:43.564Z,20.43
2017-07-29T07:51:24.460Z,20.41
2017-07-29T07:52:05.328Z,20.48
2017-07-29T07:52:46.199Z,20.39
2017-07-29T07:53:27.077Z,20.4
2017-07-29T07:54:07.958Z,20.4
2017-07-29T07:54:48.843Z,20.48
2017-07-29T07:55:29.735Z,20.52
2017-07-29T07:56:10.611Z,20.51
2017-07-29T07:56:51.492Z,20.5
2017-07-29T07:57:32.386Z,20.47
2017-07-29T07:58:13.274Z,20.52
2017-07-29T07:58:54.165Z,20.52
2017-07-29T07:59:35.046Z,20.47
2017-07-29T08:00:15.921Z,20.52
2017-07-29T08:00:56.785Z,20.48
2017-07-29T08:01:37.654Z,20.51
2017-07-29T08:02:18.522Z,20.55
2017-07-29T08:02:59.403Z,20.56
2017-07-29T08:03:40.295Z,20.52
2017-07-29T08:04:21.172Z,20.7
2017-07-29T08:05:02.035Z,20.67
2017-07-29T08:05:42.903Z,20.77
2017-07-29T08:06:23.787Z,20.82
2017-07-29T08:07:04.685Z,20.92
2017-07-29T08:07:45.567Z,21.02
2017-07-29T08:08:26.464Z,20.97
2017-07-29T08:09:07.349Z,21.17
2017-07-29T08:09:48.241Z,21.21
2017-07-29T08:10:29.109Z,21.27
2017-07-29T08:11:09.997Z,21.22
2017-07-29T08:11:50.898Z,21.42
2017-07-29T08:12:31.781Z,21.33
2017-07-29T08:13:12.658Z,21.61
2017-07-29T08:13:53.564Z,21.58
2017-07-29T08:14:34.430Z,21.67
2017-07-29T08:15:15.317Z,21.64
2017-07-29T08:15:56.195Z,21.7
2017-07-29T08:16:37.066Z,21.72
2017-07-29T08:17:17.957Z,21.72
2017-07-29T08:17:58.845Z,21.69
2017-07-29T08:18:39.706Z,21.83
2017-07-29T08:19:20.585Z,21.67
2017-07-29T08:20:01.494Z,21.82
2017-07-29T08:20:42.377Z,21.89
2017-07-29T08:21:23.264Z,21.89
2017-07-29T08:22:04.154Z,21.83
2017-07-29T08:22:45.041Z,22
2017-07-29T08:23:25.914Z,22.08
2017-07-29T08:24:06.781Z,22.17
2017-07-29T08:24:47.672Z,22.3
2017-07-29T08:25:28.567Z,22.39
2017-07-29T08:26:09.443Z,22.55
2017-07-29T08:26:50.307Z,22.69
2017-07-29T08:27:31.178Z,22.81
2017-07-29T08:28:12.070Z,22.75
2017-07-29T08:28:52.959Z,22.88
2017-07-29T08:29:33.883Z,22.73
2017-07-29T08:30:14.777Z,22.87
2017-07-29T08:30:55.653Z,22.83
2017-07-29T08:31:36.544Z,22.96
2017-07-29T08:32:17.448Z,22.94
2017-07-29T08:32:58.333Z,22.96
2017-07-29T08:33:39.208Z,23.03
2017-07-29T08:34:20.111Z,22.85
2017-07-29T08:35:01.004Z,22.85
2017-07-29T08:35:41.892Z,23.06
2017-07-29T08:36:22.782Z,23.31
2017-07-29T08:37:03.677Z,23.25
2017-07-29T08:37:44.564Z,23.44
2017-07-29T08:38:25.496Z,23.4
2017-07-29T08:39:06.370Z,23.62
2017-07-29T08:39:47.246Z,23.83
2017-07-29T08:40:28.148Z,24.01
2017-07-29T08:41:09.048Z,24.26
2017-07-29T08:41:49.991Z,24.5
2017-07-29T08:42:30.871Z,24.48
2017-07-29T08:43:11.756Z,24.78
2017-07-29T08:43:52.661Z,24.39
2017-07-29T08:44:33.560Z,25.04
2017-07-29T08:45:14.464Z,25.38
2017-07-29T08:45:55.363Z,25.78
2017-07-29T08:46:36.299Z,25.98
2017-07-29T08:47:17.201Z,26.36
2017-07-29T08:47:58.115Z,26.7
2017-07-29T08:48:38.980Z,26.97
2017-07-29T08:49:19.884Z,26.96
2017-07-29T08:50:00.792Z,27.2
2017-07-29T08:50:41.697Z,27.54
2017-07-29T08:51:22.603Z,27.78
2017-07-29T08:52:03.513Z,27.8
2017-07-29T08:52:44.443Z,28.2
2017-07-29T08:53:25.333Z,28.63
2017-07-29T08:54:06.266Z,28.88
2017-07-29T08:54:47.159Z,29.08